Eiwa Maru1 — DSPT7 — position and weather

sailwx.info

Track history (hours):
 
Tides and Currents Weather Stations Pressure Air Temp Water Temp Dewpoint Dewpoint Depression Visibility Wind Speed Wind Dir Waves Ship Positions

Eiwa Maru1

Last reported at 2017-Dec-11 17:00 UTC. Time now 2017-Dec-14 08:20 UTC.
Position N 33°56' E 131°04'.

Length 65 m; draft 4.4 m.

Type: Tanker. MMSI: 441447000.

Date/timePositionNaut miles runAvg speedWind from/ knotsBaromVisibWave heightAir tempDewpointWater temp
2017-Dec-11 17:00N 33°56' E 131°04'5 9.0
2017-Dec-11 16:30N 33°58' E 130°60'510.9
2017-Dec-11 16:00N 33°54' E 130°55'510.3
2017-Dec-11 15:30N 33°58' E 130°50'5 9.1
2017-Dec-11 15:01N 34°02' E 130°49'5 9.2
2017-Dec-11 14:30N 34°05' E 130°44'5 9.2
2017-Dec-11 14:00N 34°07' E 130°40'5 9.3
2017-Dec-11 13:30N 34°10' E 130°35'5 9.3
2017-Dec-11 13:01N 34°12' E 130°30'5 9.2
2017-Dec-11 12:30N 34°15' E 130°26'5 9.5
2017-Dec-11 12:00N 34°17' E 130°21'5 9.4
2017-Dec-11 11:30N 34°20' E 130°16'5 9.5
2017-Dec-11 11:00N 34°23' E 130°11'  
2017-Dec-01 22:54N 33°59' E 130°14'4 9.6
2017-Dec-01 22:30N 33°59' E 130°18'5 9.8
2017-Dec-01 22:00N 33°59' E 130°24'5 9.8
2017-Dec-01 21:30N 33°58' E 130°30'5 9.7
2017-Dec-01 21:01N 33°58' E 130°36'5 9.7
2017-Dec-01 20:30N 33°58' E 130°42'5 9.9
2017-Dec-01 20:00N 33°58' E 130°48'4 8.9
2017-Dec-01 19:30N 33°56' E 130°53'3 5.4
2017-Dec-01 19:00N 33°56' E 130°56'3 6.4
2017-Dec-01 18:30N 33°58' E 130°58'4 7.3
2017-Dec-01 18:00N 33°58' E 131°03'5 9.6
2017-Dec-01 17:31N 33°55' E 131°08'5 9.7
2017-Dec-01 17:01N 33°52' E 131°12'  
Track history (hours):
 
Tides and Currents Weather Stations Pressure Air Temp Water Temp Dewpoint Dewpoint Depression Visibility Wind Speed Wind Dir Waves Ship Positions

Eiwa Maru1

Last reported at 2017-Dec-11 17:00 UTC. Time now 2017-Dec-14 08:20 UTC.
Position N 33°56' E 131°04'.

Length 65 m; draft 4.4 m.

Type: Tanker. MMSI: 441447000.

Date/timePositionNaut miles runAvg speedWind from/ knotsBaromVisibWave heightAir tempDewpointWater temp
2017-Dec-11 17:00N 33°56' E 131°04'5 9.0
2017-Dec-11 16:30N 33°58' E 130°60'510.9
2017-Dec-11 16:00N 33°54' E 130°55'510.3
2017-Dec-11 15:30N 33°58' E 130°50'5 9.1
2017-Dec-11 15:01N 34°02' E 130°49'5 9.2
2017-Dec-11 14:30N 34°05' E 130°44'5 9.2
2017-Dec-11 14:00N 34°07' E 130°40'5 9.3
2017-Dec-11 13:30N 34°10' E 130°35'5 9.3
2017-Dec-11 13:01N 34°12' E 130°30'5 9.2
2017-Dec-11 12:30N 34°15' E 130°26'5 9.5
2017-Dec-11 12:00N 34°17' E 130°21'5 9.4
2017-Dec-11 11:30N 34°20' E 130°16'5 9.5
2017-Dec-11 11:00N 34°23' E 130°11'  
2017-Dec-01 22:54N 33°59' E 130°14'4 9.6
2017-Dec-01 22:30N 33°59' E 130°18'5 9.8
2017-Dec-01 22:00N 33°59' E 130°24'5 9.8
2017-Dec-01 21:30N 33°58' E 130°30'5 9.7
2017-Dec-01 21:01N 33°58' E 130°36'5 9.7
2017-Dec-01 20:30N 33°58' E 130°42'5 9.9
2017-Dec-01 20:00N 33°58' E 130°48'4 8.9
2017-Dec-01 19:30N 33°56' E 130°53'3 5.4
2017-Dec-01 19:00N 33°56' E 130°56'3 6.4
2017-Dec-01 18:30N 33°58' E 130°58'4 7.3
2017-Dec-01 18:00N 33°58' E 131°03'5 9.6
2017-Dec-01 17:31N 33°55' E 131°08'5 9.7
2017-Dec-01 17:01N 33°52' E 131°12'  

Dump ship's entire track history